sensor_id;sensor_type;location;lat;lon;timestamp;temperature;humidity
22940;DHT22;11636;52.086;5.090;2023-05-18T00:02:35;8.50;99.90
22940;DHT22;11636;52.086;5.090;2023-05-18T00:05:29;8.50;99.90
22940;DHT22;11636;52.086;5.090;2023-05-18T00:08:26;8.50;99.90
22940;DHT22;11636;52.086;5.090;2023-05-18T00:11:14;8.50;99.90
22940;DHT22;11636;52.086;5.090;2023-05-18T00:14:08;8.50;99.90
22940;DHT22;11636;52.086;5.090;2023-05-18T00:16:55;8.40;99.90
22940;DHT22;11636;52.086;5.090;2023-05-18T00:19:50;8.40;99.90
22940;DHT22;11636;52.086;5.090;2023-05-18T00:22:44;8.40;99.90
22940;DHT22;11636;52.086;5.090;2023-05-18T00:25:38;8.40;99.90
22940;DHT22;11636;52.086;5.090;2023-05-18T00:28:25;8.30;99.90
22940;DHT22;11636;52.086;5.090;2023-05-18T00:31:19;8.30;99.90
22940;DHT22;11636;52.086;5.090;2023-05-18T00:34:07;8.30;99.90
22940;DHT22;11636;52.086;5.090;2023-05-18T00:37:02;8.30;99.90
22940;DHT22;11636;52.086;5.090;2023-05-18T00:39:49;8.20;99.90
22940;DHT22;11636;52.086;5.090;2023-05-18T00:42:43;8.20;99.90
22940;DHT22;11636;52.086;5.090;2023-05-18T00:45:30;8.20;99.90
22940;DHT22;11636;52.086;5.090;2023-05-18T00:48:24;8.20;99.90
22940;DHT22;11636;52.086;5.090;2023-05-18T00:51:11;8.20;99.90
22940;DHT22;11636;52.086;5.090;2023-05-18T00:54:05;8.20;99.90
22940;DHT22;11636;52.086;5.090;2023-05-18T00:56:53;8.20;99.90
22940;DHT22;11636;52.086;5.090;2023-05-18T00:59:47;8.10;99.90
22940;DHT22;11636;52.086;5.090;2023-05-18T01:02:37;8.10;99.90
22940;DHT22;11636;52.086;5.090;2023-05-18T01:05:35;8.10;99.90
22940;DHT22;11636;52.086;5.090;2023-05-18T01:08:24;8.10;99.90
22940;DHT22;11636;52.086;5.090;2023-05-18T01:17:37;8.00;99.90
22940;DHT22;11636;52.086;5.090;2023-05-18T01:20:34;8.00;99.90
22940;DHT22;11636;52.086;5.090;2023-05-18T01:23:44;8.00;99.90
22940;DHT22;11636;52.086;5.090;2023-05-18T01:26:45;8.00;99.90
22940;DHT22;11636;52.086;5.090;2023-05-18T01:29:44;8.00;99.90
22940;DHT22;11636;52.086;5.090;2023-05-18T01:32:38;8.00;99.90
22940;DHT22;11636;52.086;5.090;2023-05-18T01:35:35;8.10;99.90
22940;DHT22;11636;52.086;5.090;2023-05-18T01:38:23;8.00;99.90
22940;DHT22;11636;52.086;5.090;2023-05-18T01:44:49;8.10;99.90
22940;DHT22;11636;52.086;5.090;2023-05-18T01:47:39;8.10;99.90
22940;DHT22;11636;52.086;5.090;2023-05-18T01:50:37;8.00;99.90
22940;DHT22;11636;52.086;5.090;2023-05-18T01:53:37;8.00;99.90
22940;DHT22;11636;52.086;5.090;2023-05-18T01:56:33;8.00;99.90
22940;DHT22;11636;52.086;5.090;2023-05-18T01:59:27;8.00;99.90
22940;DHT22;11636;52.086;5.090;2023-05-18T02:02:14;8.00;99.90
22940;DHT22;11636;52.086;5.090;2023-05-18T02:05:10;8.00;99.90
22940;DHT22;11636;52.086;5.090;2023-05-18T02:07:58;7.90;99.90
22940;DHT22;11636;52.086;5.090;2023-05-18T02:10:52;7.90;99.90
22940;DHT22;11636;52.086;5.090;2023-05-18T02:13:39;7.90;99.90
22940;DHT22;11636;52.086;5.090;2023-05-18T02:16:33;7.90;99.90
22940;DHT22;11636;52.086;5.090;2023-05-18T02:19:20;7.90;99.90
22940;DHT22;11636;52.086;5.090;2023-05-18T02:22:14;7.90;99.90
22940;DHT22;11636;52.086;5.090;2023-05-18T02:25:02;7.90;99.90
22940;DHT22;11636;52.086;5.090;2023-05-18T02:27:56;7.90;99.90
22940;DHT22;11636;52.086;5.090;2023-05-18T02:30:43;7.80;99.90
22940;DHT22;11636;52.086;5.090;2023-05-18T02:33:37;7.80;99.90
22940;DHT22;11636;52.086;5.090;2023-05-18T02:36:28;7.80;99.90
22940;DHT22;11636;52.086;5.090;2023-05-18T02:39:29;7.80;99.90
22940;DHT22;11636;52.086;5.090;2023-05-18T02:42:24;7.70;99.90
22940;DHT22;11636;52.086;5.090;2023-05-18T02:45:11;7.70;99.90
22940;DHT22;11636;52.086;5.090;2023-05-18T02:48:05;7.70;99.90
22940;DHT22;11636;52.086;5.090;2023-05-18T02:50:53;7.60;99.90
22940;DHT22;11636;52.086;5.090;2023-05-18T02:53:47;7.60;99.90
22940;DHT22;11636;52.086;5.090;2023-05-18T02:56:34;7.60;99.90
22940;DHT22;11636;52.086;5.090;2023-05-18T02:59:29;7.60;99.90
22940;DHT22;11636;52.086;5.090;2023-05-18T03:02:23;7.60;99.90
22940;DHT22;11636;52.086;5.090;2023-05-18T03:05:17;7.50;99.90
22940;DHT22;11636;52.086;5.090;2023-05-18T03:08:09;7.50;99.90
22940;DHT22;11636;52.086;5.090;2023-05-18T03:11:03;7.50;99.90
22940;DHT22;11636;52.086;5.090;2023-05-18T03:13:50;7.40;99.90
22940;DHT22;11636;52.086;5.090;2023-05-18T03:16:44;7.40;99.90
22940;DHT22;11636;52.086;5.090;2023-05-18T03:19:38;7.40;99.90
22940;DHT22;11636;52.086;5.090;2023-05-18T03:22:25;7.30;99.90
22940;DHT22;11636;52.086;5.090;2023-05-18T03:25:19;7.30;99.90
22940;DHT22;11636;52.086;5.090;2023-05-18T03:28:13;7.30;99.90
22940;DHT22;11636;52.086;5.090;2023-05-18T03:31:07;7.30;99.90
22940;DHT22;11636;52.086;5.090;2023-05-18T03:33:54;7.20;99.90
22940;DHT22;11636;52.086;5.090;2023-05-18T03:36:48;7.20;99.90
22940;DHT22;11636;52.086;5.090;2023-05-18T03:39:37;7.20;99.90
22940;DHT22;11636;52.086;5.090;2023-05-18T03:42:31;7.10;99.90
22940;DHT22;11636;52.086;5.090;2023-05-18T03:45:18;7.10;99.90
22940;DHT22;11636;52.086;5.090;2023-05-18T03:48:12;7.10;99.90
22940;DHT22;11636;52.086;5.090;2023-05-18T03:51:06;7.00;99.90
22940;DHT22;11636;52.086;5.090;2023-05-18T03:53:53;7.00;99.90
22940;DHT22;11636;52.086;5.090;2023-05-18T03:56:47;7.00;99.90
22940;DHT22;11636;52.086;5.090;2023-05-18T03:59:34;7.00;99.90
22940;DHT22;11636;52.086;5.090;2023-05-18T04:02:28;7.00;99.90
22940;DHT22;11636;52.086;5.090;2023-05-18T04:05:16;7.00;99.90
22940;DHT22;11636;52.086;5.090;2023-05-18T04:08:09;7.00;99.90
22940;DHT22;11636;52.086;5.090;2023-05-18T04:11:00;7.00;99.90
22940;DHT22;11636;52.086;5.090;2023-05-18T04:13:54;7.00;99.90
22940;DHT22;11636;52.086;5.090;2023-05-18T04:16:41;7.10;99.90
22940;DHT22;11636;52.086;5.090;2023-05-18T04:19:36;7.10;99.90
22940;DHT22;11636;52.086;5.090;2023-05-18T04:22:24;7.10;99.90
22940;DHT22;11636;52.086;5.090;2023-05-18T04:25:18;7.10;99.90
22940;DHT22;11636;52.086;5.090;2023-05-18T04:28:12;7.10;99.90
22940;DHT22;11636;52.086;5.090;2023-05-18T04:30:59;7.10;99.90
22940;DHT22;11636;52.086;5.090;2023-05-18T04:33:55;7.10;99.90
22940;DHT22;11636;52.086;5.090;2023-05-18T04:36:43;7.10;99.90
22940;DHT22;11636;52.086;5.090;2023-05-18T04:39:37;7.10;99.90
22940;DHT22;11636;52.086;5.090;2023-05-18T04:42:25;7.10;99.90
22940;DHT22;11636;52.086;5.090;2023-05-18T04:45:20;7.20;99.90
22940;DHT22;11636;52.086;5.090;2023-05-18T04:48:08;7.20;99.90
22940;DHT22;11636;52.086;5.090;2023-05-18T04:51:01;7.20;99.90
22940;DHT22;11636;52.086;5.090;2023-05-18T04:53:57;7.20;99.90
22940;DHT22;11636;52.086;5.090;2023-05-18T04:56:44;7.30;99.90
22940;DHT22;11636;52.086;5.090;2023-05-18T04:59:40;7.30;99.90
22940;DHT22;11636;52.086;5.090;2023-05-18T05:02:27;7.30;99.90
22940;DHT22;11636;52.086;5.090;2023-05-18T05:05:22;7.40;99.90
22940;DHT22;11636;52.086;5.090;2023-05-18T05:08:09;7.40;99.90
22940;DHT22;11636;52.086;5.090;2023-05-18T05:11:04;7.40;99.90
22940;DHT22;11636;52.086;5.090;2023-05-18T05:13:52;7.50;99.90
22940;DHT22;11636;52.086;5.090;2023-05-18T05:16:45;7.50;99.90
22940;DHT22;11636;52.086;5.090;2023-05-18T05:19:32;7.60;99.90
22940;DHT22;11636;52.086;5.090;2023-05-18T05:22:26;7.60;99.90
22940;DHT22;11636;52.086;5.090;2023-05-18T05:25:14;7.60;99.90
22940;DHT22;11636;52.086;5.090;2023-05-18T05:28:08;7.70;99.90
22940;DHT22;11636;52.086;5.090;2023-05-18T05:30:55;7.70;99.90
22940;DHT22;11636;52.086;5.090;2023-05-18T05:33:49;7.80;99.90
22940;DHT22;11636;52.086;5.090;2023-05-18T05:36:36;7.90;99.90
22940;DHT22;11636;52.086;5.090;2023-05-18T05:39:30;7.90;99.90
22940;DHT22;11636;52.086;5.090;2023-05-18T05:42:24;8.00;99.90
22940;DHT22;11636;52.086;5.090;2023-05-18T05:45:18;8.10;99.90
22940;DHT22;11636;52.086;5.090;2023-05-18T05:48:12;8.20;99.90
22940;DHT22;11636;52.086;5.090;2023-05-18T05:50:59;8.20;99.90
22940;DHT22;11636;52.086;5.090;2023-05-18T05:53:53;8.30;99.90
22940;DHT22;11636;52.086;5.090;2023-05-18T05:56:40;8.30;99.90
22940;DHT22;11636;52.086;5.090;2023-05-18T05:59:34;8.30;99.90
22940;DHT22;11636;52.086;5.090;2023-05-18T06:02:22;8.30;99.90
22940;DHT22;11636;52.086;5.090;2023-05-18T06:05:15;8.40;99.90
22940;DHT22;11636;52.086;5.090;2023-05-18T06:08:03;8.40;99.90
22940;DHT22;11636;52.086;5.090;2023-05-18T06:11:00;8.40;99.90
22940;DHT22;11636;52.086;5.090;2023-05-18T06:13:47;8.50;99.90
22940;DHT22;11636;52.086;5.090;2023-05-18T06:16:41;8.60;99.90
22940;DHT22;11636;52.086;5.090;2023-05-18T06:19:35;8.60;99.90
22940;DHT22;11636;52.086;5.090;2023-05-18T06:22:22;8.70;99.90
22940;DHT22;11636;52.086;5.090;2023-05-18T06:25:16;8.80;99.90
22940;DHT22;11636;52.086;5.090;2023-05-18T06:28:04;8.80;99.90
22940;DHT22;11636;52.086;5.090;2023-05-18T06:30:57;8.90;99.90
22940;DHT22;11636;52.086;5.090;2023-05-18T06:33:52;9.00;99.90
22940;DHT22;11636;52.086;5.090;2023-05-18T06:36:52;9.00;99.90
22940;DHT22;11636;52.086;5.090;2023-05-18T06:39:39;9.10;99.90
22940;DHT22;11636;52.086;5.090;2023-05-18T06:42:33;9.10;99.90
22940;DHT22;11636;52.086;5.090;2023-05-18T06:45:20;9.20;99.90
22940;DHT22;11636;52.086;5.090;2023-05-18T06:48:15;9.30;99.90
22940;DHT22;11636;52.086;5.090;2023-05-18T06:51:02;9.50;99.90
22940;DHT22;11636;52.086;5.090;2023-05-18T06:53:56;9.60;99.90
22940;DHT22;11636;52.086;5.090;2023-05-18T06:56:51;9.70;99.90
22940;DHT22;11636;52.086;5.090;2023-05-18T06:59:44;9.90;99.90
22940;DHT22;11636;52.086;5.090;2023-05-18T07:02:38;10.00;99.90
22940;DHT22;11636;52.086;5.090;2023-05-18T07:05:27;10.10;99.90
22940;DHT22;11636;52.086;5.090;2023-05-18T07:08:25;10.20;99.90
22940;DHT22;11636;52.086;5.090;2023-05-18T07:11:18;10.30;99.90
22940;DHT22;11636;52.086;5.090;2023-05-18T07:14:05;10.40;99.90
22940;DHT22;11636;52.086;5.090;2023-05-18T07:16:59;10.50;99.90
22940;DHT22;11636;52.086;5.090;2023-05-18T07:19:46;10.60;99.90
22940;DHT22;11636;52.086;5.090;2023-05-18T07:22:40;10.60;99.90
22940;DHT22;11636;52.086;5.090;2023-05-18T07:25:27;10.70;99.90
22940;DHT22;11636;52.086;5.090;2023-05-18T07:28:21;10.70;99.90
22940;DHT22;11636;52.086;5.090;2023-05-18T07:31:08;10.70;99.90
22940;DHT22;11636;52.086;5.090;2023-05-18T07:34:03;10.80;99.90
22940;DHT22;11636;52.086;5.090;2023-05-18T07:36:56;10.90;99.90
22940;DHT22;11636;52.086;5.090;2023-05-18T07:39:50;11.10;99.90
22940;DHT22;11636;52.086;5.090;2023-05-18T07:42:45;11.20;99.90
22940;DHT22;11636;52.086;5.090;2023-05-18T07:45:38;11.40;99.90
22940;DHT22;11636;52.086;5.090;2023-05-18T07:48:32;11.50;99.90
22940;DHT22;11636;52.086;5.090;2023-05-18T07:51:19;11.70;99.90
22940;DHT22;11636;52.086;5.090;2023-05-18T07:54:13;11.80;99.90
22940;DHT22;11636;52.086;5.090;2023-05-18T07:57:07;12.00;99.90
22940;DHT22;11636;52.086;5.090;2023-05-18T08:00:02;12.10;99.90
22940;DHT22;11636;52.086;5.090;2023-05-18T08:02:52;12.20;99.90
22940;DHT22;11636;52.086;5.090;2023-05-18T08:05:47;12.20;99.90
22940;DHT22;11636;52.086;5.090;2023-05-18T08:08:34;12.30;99.90
22940;DHT22;11636;52.086;5.090;2023-05-18T08:11:30;12.50;99.90
22940;DHT22;11636;52.086;5.090;2023-05-18T08:14:18;12.60;99.90
22940;DHT22;11636;52.086;5.090;2023-05-18T08:17:11;12.60;99.90
22940;DHT22;11636;52.086;5.090;2023-05-18T08:20:06;12.70;99.90
22940;DHT22;11636;52.086;5.090;2023-05-18T08:23:00;12.90;99.90
22940;DHT22;11636;52.086;5.090;2023-05-18T08:25:54;13.00;99.90
22940;DHT22;11636;52.086;5.090;2023-05-18T08:28:42;13.10;99.90
22940;DHT22;11636;52.086;5.090;2023-05-18T08:31:38;13.10;99.90
22940;DHT22;11636;52.086;5.090;2023-05-18T08:34:26;13.00;99.90
22940;DHT22;11636;52.086;5.090;2023-05-18T08:37:22;13.10;99.90
22940;DHT22;11636;52.086;5.090;2023-05-18T08:40:24;13.20;99.90
22940;DHT22;11636;52.086;5.090;2023-05-18T08:43:24;13.10;99.90
22940;DHT22;11636;52.086;5.090;2023-05-18T08:46:27;13.20;99.90
22940;DHT22;11636;52.086;5.090;2023-05-18T08:49:26;13.30;99.90
22940;DHT22;11636;52.086;5.090;2023-05-18T08:52:17;13.30;99.90
22940;DHT22;11636;52.086;5.090;2023-05-18T08:55:12;13.40;99.90
22940;DHT22;11636;52.086;5.090;2023-05-18T08:58:08;13.50;99.90
22940;DHT22;11636;52.086;5.090;2023-05-18T09:01:03;13.60;99.90
22940;DHT22;11636;52.086;5.090;2023-05-18T09:03:58;13.70;99.90
22940;DHT22;11636;52.086;5.090;2023-05-18T09:06:47;13.80;99.90
22940;DHT22;11636;52.086;5.090;2023-05-18T09:09:40;13.80;99.90
22940;DHT22;11636;52.086;5.090;2023-05-18T09:12:35;13.90;99.90
22940;DHT22;11636;52.086;5.090;2023-05-18T09:15:22;13.90;99.90
22940;DHT22;11636;52.086;5.090;2023-05-18T09:18:18;13.90;99.50
22940;DHT22;11636;52.086;5.090;2023-05-18T09:21:09;13.80;99.00
22940;DHT22;11636;52.086;5.090;2023-05-18T09:24:04;13.80;98.80
22940;DHT22;11636;52.086;5.090;2023-05-18T09:26:58;13.80;98.70
22940;DHT22;11636;52.086;5.090;2023-05-18T09:29:53;13.80;98.80
22940;DHT22;11636;52.086;5.090;2023-05-18T09:32:42;13.90;98.50
22940;DHT22;11636;52.086;5.090;2023-05-18T09:35:38;13.80;98.10
22940;DHT22;11636;52.086;5.090;2023-05-18T09:38:27;13.90;98.20
22940;DHT22;11636;52.086;5.090;2023-05-18T09:41:25;14.00;98.10
22940;DHT22;11636;52.086;5.090;2023-05-18T09:44:31;14.00;97.20
22940;DHT22;11636;52.086;5.090;2023-05-18T09:47:19;14.00;97.30
22940;DHT22;11636;52.086;5.090;2023-05-18T09:50:13;14.00;97.90
22940;DHT22;11636;52.086;5.090;2023-05-18T09:53:02;14.20;97.80
22940;DHT22;11636;52.086;5.090;2023-05-18T09:56:02;14.20;97.40
22940;DHT22;11636;52.086;5.090;2023-05-18T09:58:50;14.40;97.50
22940;DHT22;11636;52.086;5.090;2023-05-18T10:02:00;14.50;97.20
22940;DHT22;11636;52.086;5.090;2023-05-18T10:04:48;14.70;96.90
22940;DHT22;11636;52.086;5.090;2023-05-18T10:07:42;14.60;96.20
22940;DHT22;11636;52.086;5.090;2023-05-18T10:10:30;14.50;96.40
22940;DHT22;11636;52.086;5.090;2023-05-18T10:13:26;14.50;97.10
22940;DHT22;11636;52.086;5.090;2023-05-18T10:16:14;14.70;97.00
22940;DHT22;11636;52.086;5.090;2023-05-18T10:19:09;14.80;96.60
22940;DHT22;11636;52.086;5.090;2023-05-18T10:21:58;14.90;96.50
22940;DHT22;11636;52.086;5.090;2023-05-18T10:24:54;15.00;96.00
22940;DHT22;11636;52.086;5.090;2023-05-18T10:27:43;15.00;95.50
22940;DHT22;11636;52.086;5.090;2023-05-18T10:30:39;14.90;95.50
22940;DHT22;11636;52.086;5.090;2023-05-18T10:33:30;15.00;95.60
22940;DHT22;11636;52.086;5.090;2023-05-18T10:36:24;15.00;95.20
22940;DHT22;11636;52.086;5.090;2023-05-18T10:39:15;15.00;95.20
22940;DHT22;11636;52.086;5.090;2023-05-18T10:42:10;15.10;95.80
22940;DHT22;11636;52.086;5.090;2023-05-18T10:45:06;15.30;95.40
22940;DHT22;11636;52.086;5.090;2023-05-18T10:47:56;15.40;95.60
22940;DHT22;11636;52.086;5.090;2023-05-18T10:50:54;15.50;95.00
22940;DHT22;11636;52.086;5.090;2023-05-18T10:53:48;15.50;95.00
22940;DHT22;11636;52.086;5.090;2023-05-18T10:56:44;15.60;94.70
22940;DHT22;11636;52.086;5.090;2023-05-18T10:59:34;15.50;94.40
22940;DHT22;11636;52.086;5.090;2023-05-18T11:02:29;15.50;94.60
22940;DHT22;11636;52.086;5.090;2023-05-18T11:05:24;15.60;94.40
22940;DHT22;11636;52.086;5.090;2023-05-18T11:08:25;15.60;94.20
22940;DHT22;11636;52.086;5.090;2023-05-18T11:11:22;15.60;94.40
22940;DHT22;11636;52.086;5.090;2023-05-18T11:14:24;15.70;94.70
22940;DHT22;11636;52.086;5.090;2023-05-18T11:17:22;15.80;94.50
22940;DHT22;11636;52.086;5.090;2023-05-18T11:20:11;15.90;94.20
22940;DHT22;11636;52.086;5.090;2023-05-18T11:23:06;16.10;94.10
22940;DHT22;11636;52.086;5.090;2023-05-18T11:25:53;16.20;93.50
22940;DHT22;11636;52.086;5.090;2023-05-18T11:28:51;16.30;93.40
22940;DHT22;11636;52.086;5.090;2023-05-18T11:31:52;16.50;93.20
22940;DHT22;11636;52.086;5.090;2023-05-18T11:34:54;16.70;92.70
22940;DHT22;11636;52.086;5.090;2023-05-18T11:40:47;17.00;92.10
22940;DHT22;11636;52.086;5.090;2023-05-18T11:43:35;17.30;92.10
22940;DHT22;11636;52.086;5.090;2023-05-18T11:46:29;17.40;90.90
22940;DHT22;11636;52.086;5.090;2023-05-18T11:49:27;17.40;90.60
22940;DHT22;11636;52.086;5.090;2023-05-18T11:52:22;17.50;90.90
22940;DHT22;11636;52.086;5.090;2023-05-18T11:55:19;17.60;91.20
22940;DHT22;11636;52.086;5.090;2023-05-18T11:58:07;17.70;90.30
22940;DHT22;11636;52.086;5.090;2023-05-18T12:01:02;17.90;90.50
22940;DHT22;11636;52.086;5.090;2023-05-18T12:03:50;18.20;90.50
22940;DHT22;11636;52.086;5.090;2023-05-18T12:06:44;18.60;90.40
22940;DHT22;11636;52.086;5.090;2023-05-18T12:09:31;18.90;87.50
22940;DHT22;11636;52.086;5.090;2023-05-18T12:12:26;18.90;84.10
22940;DHT22;11636;52.086;5.090;2023-05-18T12:15:21;18.80;84.30
22940;DHT22;11636;52.086;5.090;2023-05-18T12:18:09;18.80;85.30
22940;DHT22;11636;52.086;5.090;2023-05-18T12:21:03;19.00;85.10
22940;DHT22;11636;52.086;5.090;2023-05-18T12:24:00;18.90;84.40
22940;DHT22;11636;52.086;5.090;2023-05-18T12:26:54;18.90;84.70
22940;DHT22;11636;52.086;5.090;2023-05-18T12:29:42;18.70;84.00
22940;DHT22;11636;52.086;5.090;2023-05-18T12:32:36;18.60;83.90
22940;DHT22;11636;52.086;5.090;2023-05-18T12:35:30;18.70;84.00
22940;DHT22;11636;52.086;5.090;2023-05-18T12:38:19;18.70;84.00
22940;DHT22;11636;52.086;5.090;2023-05-18T12:41:24;18.90;84.50
22940;DHT22;11636;52.086;5.090;2023-05-18T12:44:21;19.10;83.90
22940;DHT22;11636;52.086;5.090;2023-05-18T12:47:15;19.20;82.50
22940;DHT22;11636;52.086;5.090;2023-05-18T12:50:02;19.20;80.00
22940;DHT22;11636;52.086;5.090;2023-05-18T12:52:56;19.00;81.30
22940;DHT22;11636;52.086;5.090;2023-05-18T12:55:57;18.90;82.00
22940;DHT22;11636;52.086;5.090;2023-05-18T12:58:59;18.60;81.90
22940;DHT22;11636;52.086;5.090;2023-05-18T13:01:53;18.50;82.60
22940;DHT22;11636;52.086;5.090;2023-05-18T13:05:02;18.40;83.80
22940;DHT22;11636;52.086;5.090;2023-05-18T13:07:49;18.50;83.60
22940;DHT22;11636;52.086;5.090;2023-05-18T13:10:43;18.40;82.90
22940;DHT22;11636;52.086;5.090;2023-05-18T13:13:31;18.30;83.40
22940;DHT22;11636;52.086;5.090;2023-05-18T13:16:25;18.30;83.00
22940;DHT22;11636;52.086;5.090;2023-05-18T13:19:16;18.20;83.20
22940;DHT22;11636;52.086;5.090;2023-05-18T13:22:14;18.30;84.00
22940;DHT22;11636;52.086;5.090;2023-05-18T13:25:02;18.60;84.10
22940;DHT22;11636;52.086;5.090;2023-05-18T13:27:56;18.70;83.30
22940;DHT22;11636;52.086;5.090;2023-05-18T13:30:44;18.70;82.70
22940;DHT22;11636;52.086;5.090;2023-05-18T13:33:39;18.80;83.00
22940;DHT22;11636;52.086;5.090;2023-05-18T13:36:33;19.00;82.50
22940;DHT22;11636;52.086;5.090;2023-05-18T13:39:28;19.20;82.50
22940;DHT22;11636;52.086;5.090;2023-05-18T13:42:22;19.30;81.20
22940;DHT22;11636;52.086;5.090;2023-05-18T13:45:10;19.50;80.60
22940;DHT22;11636;52.086;5.090;2023-05-18T13:48:04;19.60;78.00
22940;DHT22;11636;52.086;5.090;2023-05-18T13:51:02;19.70;77.80
22940;DHT22;11636;52.086;5.090;2023-05-18T13:53:56;19.70;76.80
22940;DHT22;11636;52.086;5.090;2023-05-18T13:56:43;19.60;76.70
22940;DHT22;11636;52.086;5.090;2023-05-18T13:59:37;19.70;76.90
22940;DHT22;11636;52.086;5.090;2023-05-18T14:02:24;19.70;76.80
22940;DHT22;11636;52.086;5.090;2023-05-18T14:05:19;19.80;75.20
22940;DHT22;11636;52.086;5.090;2023-05-18T14:08:15;19.90;74.60
22940;DHT22;11636;52.086;5.090;2023-05-18T14:11:09;19.90;74.80
22940;DHT22;11636;52.086;5.090;2023-05-18T14:14:03;20.00;75.30
22940;DHT22;11636;52.086;5.090;2023-05-18T14:16:50;20.30;75.20
22940;DHT22;11636;52.086;5.090;2023-05-18T14:19:44;20.60;74.60
22940;DHT22;11636;52.086;5.090;2023-05-18T14:22:31;20.70;73.30
22940;DHT22;11636;52.086;5.090;2023-05-18T14:25:25;20.70;72.10
22940;DHT22;11636;52.086;5.090;2023-05-18T14:28:19;20.60;71.50
22940;DHT22;11636;52.086;5.090;2023-05-18T14:31:06;20.70;72.00
22940;DHT22;11636;52.086;5.090;2023-05-18T14:34:00;20.60;72.50
22940;DHT22;11636;52.086;5.090;2023-05-18T14:36:48;20.70;73.20
22940;DHT22;11636;52.086;5.090;2023-05-18T14:39:41;20.90;72.70
22940;DHT22;11636;52.086;5.090;2023-05-18T14:42:35;20.90;70.40
22940;DHT22;11636;52.086;5.090;2023-05-18T14:45:23;20.80;70.10
22940;DHT22;11636;52.086;5.090;2023-05-18T14:48:16;20.70;69.50
22940;DHT22;11636;52.086;5.090;2023-05-18T14:51:03;20.70;69.90
22940;DHT22;11636;52.086;5.090;2023-05-18T14:53:57;20.70;69.90
22940;DHT22;11636;52.086;5.090;2023-05-18T14:56:51;20.80;70.80
22940;DHT22;11636;52.086;5.090;2023-05-18T14:59:38;20.90;70.70
22940;DHT22;11636;52.086;5.090;2023-05-18T15:02:32;21.00;69.50
22940;DHT22;11636;52.086;5.090;2023-05-18T15:05:19;21.00;69.20
22940;DHT22;11636;52.086;5.090;2023-05-18T15:08:13;21.00;68.60
22940;DHT22;11636;52.086;5.090;2023-05-18T15:11:00;21.10;68.90
22940;DHT22;11636;52.086;5.090;2023-05-18T15:13:54;21.10;68.40
22940;DHT22;11636;52.086;5.090;2023-05-18T15:16:41;21.20;67.40
22940;DHT22;11636;52.086;5.090;2023-05-18T15:19:35;21.10;67.50
22940;DHT22;11636;52.086;5.090;2023-05-18T15:22:22;21.10;67.50
22940;DHT22;11636;52.086;5.090;2023-05-18T15:25:16;21.20;66.80
22940;DHT22;11636;52.086;5.090;2023-05-18T15:28:10;21.30;67.80
22940;DHT22;11636;52.086;5.090;2023-05-18T15:31:04;21.30;66.70
22940;DHT22;11636;52.086;5.090;2023-05-18T15:33:58;21.30;66.20
22940;DHT22;11636;52.086;5.090;2023-05-18T15:36:52;21.00;66.60
22940;DHT22;11636;52.086;5.090;2023-05-18T15:39:39;20.60;67.20
22940;DHT22;11636;52.086;5.090;2023-05-18T15:42:33;20.40;67.80
22940;DHT22;11636;52.086;5.090;2023-05-18T15:45:20;20.30;68.90
22940;DHT22;11636;52.086;5.090;2023-05-18T15:48:14;20.30;68.90
22940;DHT22;11636;52.086;5.090;2023-05-18T15:51:08;20.20;68.70
22940;DHT22;11636;52.086;5.090;2023-05-18T15:54:02;20.10;68.80
22940;DHT22;11636;52.086;5.090;2023-05-18T15:56:49;19.90;67.90
22940;DHT22;11636;52.086;5.090;2023-05-18T15:59:43;19.60;69.30
22940;DHT22;11636;52.086;5.090;2023-05-18T16:02:37;19.30;70.20
22940;DHT22;11636;52.086;5.090;2023-05-18T16:05:24;19.10;71.20
22940;DHT22;11636;52.086;5.090;2023-05-18T16:08:18;19.00;71.70
22940;DHT22;11636;52.086;5.090;2023-05-18T16:11:06;18.90;71.30
22940;DHT22;11636;52.086;5.090;2023-05-18T16:14:00;18.70;72.00
22940;DHT22;11636;52.086;5.090;2023-05-18T16:16:48;18.70;72.40
22940;DHT22;11636;52.086;5.090;2023-05-18T16:19:41;18.60;72.60
22940;DHT22;11636;52.086;5.090;2023-05-18T16:22:28;18.60;73.10
22940;DHT22;11636;52.086;5.090;2023-05-18T16:25:22;18.60;73.30
22940;DHT22;11636;52.086;5.090;2023-05-18T16:28:10;18.60;73.20
22940;DHT22;11636;52.086;5.090;2023-05-18T16:31:03;18.60;74.00
22940;DHT22;11636;52.086;5.090;2023-05-18T16:33:59;18.50;73.90
22940;DHT22;11636;52.086;5.090;2023-05-18T16:37:00;18.50;74.60
22940;DHT22;11636;52.086;5.090;2023-05-18T16:39:54;18.30;74.60
22940;DHT22;11636;52.086;5.090;2023-05-18T16:42:42;18.00;74.30
22940;DHT22;11636;52.086;5.090;2023-05-18T16:45:39;17.70;75.00
22940;DHT22;11636;52.086;5.090;2023-05-18T16:48:26;17.60;76.30
22940;DHT22;11636;52.086;5.090;2023-05-18T16:51:20;17.50;76.80
22940;DHT22;11636;52.086;5.090;2023-05-18T16:54:07;17.40;76.80
22940;DHT22;11636;52.086;5.090;2023-05-18T16:57:01;17.30;76.90
22940;DHT22;11636;52.086;5.090;2023-05-18T16:59:51;17.30;77.30
22940;DHT22;11636;52.086;5.090;2023-05-18T17:02:44;17.30;77.90
22940;DHT22;11636;52.086;5.090;2023-05-18T17:05:32;17.30;78.00
22940;DHT22;11636;52.086;5.090;2023-05-18T17:08:26;17.20;78.00
22940;DHT22;11636;52.086;5.090;2023-05-18T17:11:20;17.20;78.30
22940;DHT22;11636;52.086;5.090;2023-05-18T17:14:15;17.20;78.80
22940;DHT22;11636;52.086;5.090;2023-05-18T17:17:16;17.10;78.90
22940;DHT22;11636;52.086;5.090;2023-05-18T17:20:05;17.00;79.10
22940;DHT22;11636;52.086;5.090;2023-05-18T17:22:59;17.00;79.00
22940;DHT22;11636;52.086;5.090;2023-05-18T17:25:50;16.90;79.60
22940;DHT22;11636;52.086;5.090;2023-05-18T17:28:52;16.80;79.90
22940;DHT22;11636;52.086;5.090;2023-05-18T17:31:39;16.70;80.20
22940;DHT22;11636;52.086;5.090;2023-05-18T17:34:33;16.60;80.40
22940;DHT22;11636;52.086;5.090;2023-05-18T17:37:20;16.60;81.20
22940;DHT22;11636;52.086;5.090;2023-05-18T17:40:14;16.50;81.50
22940;DHT22;11636;52.086;5.090;2023-05-18T17:43:08;16.40;81.20
22940;DHT22;11636;52.086;5.090;2023-05-18T17:45:55;16.30;81.30
22940;DHT22;11636;52.086;5.090;2023-05-18T17:48:49;16.20;81.40
22940;DHT22;11636;52.086;5.090;2023-05-18T17:51:37;16.20;80.90
22940;DHT22;11636;52.086;5.090;2023-05-18T17:54:30;16.20;81.20
22940;DHT22;11636;52.086;5.090;2023-05-18T17:57:17;16.10;81.30
22940;DHT22;11636;52.086;5.090;2023-05-18T18:00:12;16.10;81.50
22940;DHT22;11636;52.086;5.090;2023-05-18T18:03:00;16.00;81.60
22940;DHT22;11636;52.086;5.090;2023-05-18T18:05:53;15.90;81.60
22940;DHT22;11636;52.086;5.090;2023-05-18T18:08:41;15.90;83.00
22940;DHT22;11636;52.086;5.090;2023-05-18T18:11:34;15.80;82.80
22940;DHT22;11636;52.086;5.090;2023-05-18T18:14:28;15.80;83.30
22940;DHT22;11636;52.086;5.090;2023-05-18T18:17:22;15.70;83.70
22940;DHT22;11636;52.086;5.090;2023-05-18T18:20:10;15.70;84.40
22940;DHT22;11636;52.086;5.090;2023-05-18T18:23:05;15.70;84.60
22940;DHT22;11636;52.086;5.090;2023-05-18T18:26:00;15.60;84.80
22940;DHT22;11636;52.086;5.090;2023-05-18T18:28:47;15.60;85.20
22940;DHT22;11636;52.086;5.090;2023-05-18T18:31:40;15.50;85.50